Time;durP1;ratioP1;P1;durP2;ratioP2;P2;SDS_P1;SDS_P2;PMS_P1;PMS_P2;Temp;Humidity;BMP_temperature;BMP_pressure;BME280_temperature;BME280_humidity;BME280_pressure;Samples;Min_cycle;Max_cycle;Signal;HPM_P1;HPM_P2
2022/08/15 00:00:12;;;;;;;7.90;4.50;;;23.30;11.60;;;;;;5066918;28;20481;-60
2022/08/15 00:02:42;;;;;;;6.60;4.07;;;23.40;11.60;;;;;;5067048;28;20469;-59
2022/08/15 00:05:11;;;;;;;7.33;4.30;;;23.40;11.90;;;;;;5070458;28;20464;-59
2022/08/15 00:07:38;;;;;;;8.80;4.37;;;23.30;12.10;;;;;;5069902;28;20464;-59
2022/08/15 00:10:06;;;;;;;6.33;4.07;;;23.30;12.20;;;;;;5068762;28;20477;-60
2022/08/15 00:12:34;;;;;;;7.00;4.60;;;23.30;12.60;;;;;;5070179;28;20460;-60
2022/08/15 00:15:01;;;;;;;9.77;4.70;;;23.30;12.90;;;;;;5064570;28;21061;-59
2022/08/15 00:17:29;;;;;;;8.43;4.60;;;23.20;12.90;;;;;;5067697;28;20453;-59
2022/08/15 00:19:56;;;;;;;7.10;4.30;;;23.20;13.00;;;;;;5067460;28;20481;-59
2022/08/15 00:22:24;;;;;;;5.90;4.10;;;23.20;13.10;;;;;;5069533;28;20954;-59
2022/08/15 00:24:52;;;;;;;9.30;4.67;;;23.20;13.00;;;;;;5065205;28;20488;-59
2022/08/15 00:27:20;;;;;;;8.40;4.70;;;23.20;13.10;;;;;;5069343;28;20461;-59
2022/08/15 00:29:47;;;;;;;7.43;4.87;;;23.10;13.10;;;;;;5065269;28;20481;-60
2022/08/15 00:32:18;;;;;;;7.20;4.30;;;23.10;13.00;;;;;;5066126;28;20485;-59
2022/08/15 00:34:45;;;;;;;6.77;4.73;;;23.10;13.10;;;;;;5067484;28;20449;-59
2022/08/15 00:37:11;;;;;;;8.73;4.30;;;23.10;13.20;;;;;;5066293;28;20457;-59
2022/08/15 00:39:39;;;;;;;7.50;4.30;;;23.10;13.10;;;;;;5065458;28;20481;-60
2022/08/15 00:42:09;;;;;;;7.20;4.33;;;23.00;13.10;;;;;;5067072;28;20457;-59
2022/08/15 00:44:40;;;;;;;6.80;4.20;;;23.00;13.30;;;;;;5065376;28;20481;-59
2022/08/15 00:47:09;;;;;;;7.73;4.53;;;23.00;13.20;;;;;;5065411;28;20548;-59
2022/08/15 00:49:37;;;;;;;8.10;5.00;;;23.00;13.30;;;;;;5065322;28;20497;-59
2022/08/15 00:52:06;;;;;;;6.17;3.90;;;23.00;13.40;;;;;;5067367;28;20460;-59
2022/08/15 00:54:39;;;;;;;10.43;5.20;;;23.00;13.50;;;;;;5064174;28;20454;-59
2022/08/15 00:57:10;;;;;;;8.40;5.10;;;23.00;13.70;;;;;;5066443;28;20503;-59
2022/08/15 00:59:41;;;;;;;6.73;4.60;;;22.90;13.70;;;;;;5068063;28;21004;-59
2022/08/15 01:02:11;;;;;;;7.60;5.13;;;22.90;13.70;;;;;;5068087;28;20473;-60
2022/08/15 01:04:38;;;;;;;9.10;4.50;;;22.90;13.90;;;;;;5067722;28;20480;-60
2022/08/15 01:07:06;;;;;;;7.00;4.63;;;22.80;13.90;;;;;;5067375;28;20535;-60
2022/08/15 01:09:35;;;;;;;6.70;4.57;;;22.80;13.90;;;;;;5066630;28;20484;-60
2022/08/15 01:12:08;;;;;;;7.40;5.07;;;22.80;14.10;;;;;;5067620;28;20460;-60
2022/08/15 01:14:36;;;;;;;6.70;4.80;;;22.80;14.10;;;;;;5069096;28;20453;-59
2022/08/15 01:17:04;;;;;;;6.23;4.17;;;22.70;14.20;;;;;;5068051;28;20453;-59
2022/08/15 01:19:34;;;;;;;8.30;4.30;;;22.70;14.30;;;;;;5075467;28;20472;-59
2022/08/15 01:22:27;;;;;;;10.60;4.60;;;22.70;14.50;;;;;;5067952;28;20476;-60
2022/08/15 01:24:59;;;;;;;7.50;4.27;;;22.60;14.70;;;;;;5067407;28;20821;-61
2022/08/15 01:27:30;;;;;;;9.60;4.33;;;22.60;14.80;;;;;;5062517;28;20521;-60
2022/08/15 01:29:59;;;;;;;7.63;4.60;;;22.60;14.80;;;;;;5073569;28;20977;-59
2022/08/15 01:32:26;;;;;;;7.77;5.60;;;22.50;15.10;;;;;;5066249;28;20473;-59
2022/08/15 01:34:53;;;;;;;6.50;4.07;;;22.40;15.10;;;;;;5067145;28;20453;-60
2022/08/15 01:37:22;;;;;;;8.43;4.90;;;22.40;15.30;;;;;;5064307;28;20949;-60
2022/08/15 01:39:53;;;;;;;7.80;5.40;;;22.40;15.40;;;;;;5068513;28;20550;-60
2022/08/15 01:42:25;;;;;;;6.87;4.90;;;22.40;15.40;;;;;;5067926;28;20483;-60
2022/08/15 01:44:55;;;;;;;6.53;4.40;;;22.30;15.50;;;;;;5068524;28;20484;-60
2022/08/15 01:47:28;;;;;;;7.83;5.37;;;22.30;15.60;;;;;;5066577;28;20457;-59
2022/08/15 01:50:01;;;;;;;8.10;5.00;;;22.30;15.70;;;;;;5061648;28;20480;-60
2022/08/15 01:52:37;;;;;;;7.47;5.00;;;22.30;15.70;;;;;;5068349;28;20462;-60
2022/08/15 01:55:07;;;;;;;8.73;4.20;;;22.30;15.90;;;;;;5064791;28;20450;-59
2022/08/15 01:57:35;;;;;;;7.47;5.43;;;22.30;15.80;;;;;;5065578;28;20466;-59
2022/08/15 02:00:02;;;;;;;8.67;4.80;;;22.30;15.80;;;;;;5075129;28;20994;-60
2022/08/15 02:02:29;;;;;;;9.30;5.00;;;22.30;15.90;;;;;;5065756;28;20473;-60
2022/08/15 02:04:56;;;;;;;6.20;4.17;;;22.20;16.00;;;;;;5067088;28;20473;-59
2022/08/15 02:07:28;;;;;;;6.47;3.97;;;22.30;16.10;;;;;;5064663;28;20461;-60
2022/08/15 02:09:56;;;;;;;7.80;5.00;;;22.30;16.20;;;;;;5067852;28;20505;-59
2022/08/15 02:12:28;;;;;;;6.80;3.97;;;22.20;16.10;;;;;;5065633;28;20461;-60
2022/08/15 02:14:57;;;;;;;7.77;5.03;;;22.10;16.30;;;;;;5064847;28;20972;-60
2022/08/15 02:17:24;;;;;;;8.53;4.47;;;22.10;16.40;;;;;;5069312;28;21274;-59
2022/08/15 02:19:52;;;;;;;7.30;4.73;;;22.00;16.40;;;;;;5071642;28;20484;-60
2022/08/15 02:22:21;;;;;;;7.03;4.03;;;22.00;16.40;;;;;;5066809;28;20460;-59
2022/08/15 02:24:48;;;;;;;7.47;4.83;;;21.90;16.60;;;;;;5065810;28;20478;-60
2022/08/15 02:27:15;;;;;;;8.97;4.20;;;21.90;16.50;;;;;;5065601;28;20477;-59
2022/08/15 02:29:43;;;;;;;7.63;5.17;;;21.90;16.60;;;;;;5060372;28;20481;-59
2022/08/15 02:32:13;;;;;;;7.63;4.73;;;21.90;16.60;;;;;;5065111;28;20852;-59
2022/08/15 02:34:41;;;;;;;5.60;3.93;;;21.90;16.70;;;;;;5066963;28;20461;-59
2022/08/15 02:37:11;;;;;;;5.60;4.20;;;21.90;16.80;;;;;;5066708;28;20464;-60
2022/08/15 02:39:38;;;;;;;8.57;5.03;;;21.90;16.70;;;;;;5064377;28;20848;-60
2022/08/15 02:42:05;;;;;;;7.10;4.53;;;21.90;16.80;;;;;;5067216;28;20458;-60
2022/08/15 02:44:32;;;;;;;8.43;4.87;;;21.90;16.80;;;;;;5065759;28;20563;-59
2022/08/15 02:47:00;;;;;;;6.20;4.10;;;21.90;16.70;;;;;;5067004;28;20458;-60
2022/08/15 02:49:29;;;;;;;8.90;4.53;;;22.00;16.70;;;;;;5063284;28;20576;-60
2022/08/15 02:51:56;;;;;;;6.60;3.80;;;22.00;16.70;;;;;;5064514;28;20457;-59
2022/08/15 02:54:26;;;;;;;11.90;4.27;;;22.00;16.60;;;;;;5066592;28;20460;-60
2022/08/15 02:56:53;;;;;;;6.70;4.37;;;22.00;16.80;;;;;;5062241;28;20457;-60
2022/08/15 02:59:20;;;;;;;7.57;4.37;;;22.00;16.70;;;;;;5066082;28;20477;-59
2022/08/15 03:01:47;;;;;;;6.60;3.97;;;22.00;16.70;;;;;;5064489;28;20469;-59
2022/08/15 03:04:19;;;;;;;6.40;4.00;;;22.00;16.70;;;;;;5065524;28;20473;-60
2022/08/15 03:06:47;;;;;;;5.53;3.63;;;22.00;16.70;;;;;;5060319;28;20956;-60
2022/08/15 03:09:15;;;;;;;7.20;4.20;;;22.00;16.60;;;;;;5063919;28;20484;-59
2022/08/15 03:11:44;;;;;;;5.40;3.70;;;22.00;16.60;;;;;;5065950;28;20464;-60
2022/08/15 03:14:13;;;;;;;8.90;4.30;;;22.00;16.70;;;;;;5063478;28;20457;-60
2022/08/15 03:16:43;;;;;;;6.30;4.00;;;22.00;16.80;;;;;;5065099;28;20942;-59
2022/08/15 03:19:10;;;;;;;8.67;4.57;;;22.00;16.70;;;;;;5063508;28;20568;-60
2022/08/15 03:21:37;;;;;;;6.00;3.80;;;22.00;16.70;;;;;;5064825;28;20854;-60
2022/08/15 03:24:06;;;;;;;8.23;3.83;;;22.00;16.70;;;;;;5066790;28;20481;-59
2022/08/15 03:26:34;;;;;;;46.63;5.20;;;22.10;16.80;;;;;;5066150;28;20830;-70
2022/08/15 03:29:01;;;;;;;5.33;3.07;;;22.10;16.70;;;;;;5063816;28;20556;-60
2022/08/15 03:31:28;;;;;;;7.63;3.60;;;22.10;16.60;;;;;;5072336;28;20972;-59
2022/08/15 03:33:55;;;;;;;5.77;4.00;;;22.10;16.70;;;;;;5066785;28;20458;-59
2022/08/15 03:36:24;;;;;;;6.90;3.50;;;22.10;16.70;;;;;;5069705;28;21280;-60
2022/08/15 03:38:52;;;;;;;6.80;3.60;;;22.10;16.80;;;;;;5068897;28;20512;-59
2022/08/15 03:41:21;;;;;;;7.50;3.40;;;22.10;17.00;;;;;;5069980;28;20456;-59
2022/08/15 03:43:47;;;;;;;11.20;4.23;;;22.10;16.90;;;;;;5068905;28;20663;-60
2022/08/15 03:46:20;;;;;;;6.13;3.27;;;22.10;17.20;;;;;;5066222;28;20468;-59
2022/08/15 03:48:49;;;;;;;6.63;4.03;;;22.10;17.40;;;;;;5074272;28;20489;-60
2022/08/15 03:51:18;;;;;;;6.70;3.40;;;22.10;17.70;;;;;;5066794;28;20460;-60
2022/08/15 03:53:49;;;;;;;6.17;3.17;;;22.10;17.40;;;;;;5067499;28;20536;-60
2022/08/15 03:56:19;;;;;;;7.67;3.37;;;22.10;17.50;;;;;;5067546;28;20479;-60
2022/08/15 03:58:48;;;;;;;6.40;3.20;;;22.10;17.50;;;;;;5067255;28;20575;-59
2022/08/15 04:01:18;;;;;;;6.43;3.30;;;22.10;17.60;;;;;;5064264;28;20480;-60
2022/08/15 04:03:46;;;;;;;7.07;3.33;;;22.00;17.70;;;;;;5067178;28;20477;-59
2022/08/15 04:06:16;;;;;;;8.43;3.40;;;22.10;17.90;;;;;;5065129;28;20462;-60
2022/08/15 04:08:45;;;;;;;5.87;3.20;;;22.00;17.90;;;;;;5069089;28;20480;-60
2022/08/15 04:11:13;;;;;;;8.07;3.10;;;22.00;18.00;;;;;;5068864;28;20476;-59
2022/08/15 04:13:40;;;;;;;9.10;3.10;;;21.90;18.20;;;;;;5067501;28;20461;-59
2022/08/15 04:16:09;;;;;;;5.00;3.13;;;22.00;18.20;;;;;;5071602;28;20449;-60
2022/08/15 04:18:36;;;;;;;8.97;3.20;;;21.90;18.30;;;;;;5067135;28;20453;-59
2022/08/15 04:21:06;;;;;;;6.33;3.33;;;21.90;18.30;;;;;;5069567;28;20461;-60
2022/08/15 04:23:34;;;;;;;5.80;3.43;;;21.90;18.60;;;;;;5067559;28;20452;-60
2022/08/15 04:26:01;;;;;;;5.30;3.00;;;21.90;18.70;;;;;;5070104;28;20477;-60
2022/08/15 04:28:30;;;;;;;5.30;2.97;;;21.90;18.90;;;;;;5068810;28;20453;-60
2022/08/15 04:30:59;;;;;;;6.13;2.70;;;21.80;19.00;;;;;;5068412;28;20485;-60
2022/08/15 04:33:29;;;;;;;5.50;3.33;;;21.80;18.90;;;;;;5068322;28;20469;-60
2022/08/15 04:35:58;;;;;;;5.37;2.67;;;21.80;19.10;;;;;;5069276;28;20454;-59
2022/08/15 04:38:25;;;;;;;8.93;4.00;;;21.80;19.30;;;;;;5069265;28;22053;-60
2022/08/15 04:40:53;;;;;;;7.20;3.40;;;21.70;19.40;;;;;;5068570;28;20461;-59
2022/08/15 04:43:21;;;;;;;6.63;3.80;;;21.80;19.60;;;;;;5069741;28;20520;-60
2022/08/15 04:45:49;;;;;;;6.00;3.17;;;21.70;19.70;;;;;;5062747;28;20483;-59
2022/08/15 04:48:16;;;;;;;6.40;3.60;;;21.70;20.00;;;;;;5066836;28;20461;-60
2022/08/15 04:50:48;;;;;;;9.07;3.43;;;21.70;20.50;;;;;;5065926;28;20487;-61
2022/08/15 04:53:15;;;;;;;5.87;3.30;;;21.70;21.20;;;;;;5076003;28;20470;-61
2022/08/15 04:55:43;;;;;;;7.07;3.40;;;21.70;21.70;;;;;;5074409;28;20461;-61
2022/08/15 04:58:12;;;;;;;6.87;3.43;;;21.70;22.70;;;;;;5069532;28;20953;-60
2022/08/15 05:00:42;;;;;;;5.90;3.17;;;21.60;22.90;;;;;;5068865;28;20984;-60
2022/08/15 05:03:12;;;;;;;5.80;2.93;;;21.60;23.10;;;;;;5060655;28;20464;-60
2022/08/15 05:05:44;;;;;;;6.07;3.50;;;21.50;23.40;;;;;;5068528;28;20480;-60
2022/08/15 05:08:13;;;;;;;9.00;3.57;;;21.50;23.80;;;;;;5066420;28;20992;-60
2022/08/15 05:10:39;;;;;;;6.30;3.70;;;21.50;24.10;;;;;;5066909;28;21817;-60
2022/08/15 05:13:11;;;;;;;6.57;3.50;;;21.40;24.30;;;;;;5070303;28;20465;-61
2022/08/15 05:15:38;;;;;;;5.50;3.10;;;21.40;25.40;;;;;;5067367;28;20457;-60
2022/08/15 05:18:05;;;;;;;7.77;3.17;;;21.30;26.00;;;;;;5066299;28;20465;-60
2022/08/15 05:20:32;;;;;;;5.80;3.20;;;21.30;26.10;;;;;;5069278;28;20481;-60
2022/08/15 05:23:00;;;;;;;5.40;2.97;;;21.30;26.20;;;;;;5066833;28;20460;-60
2022/08/15 05:25:29;;;;;;;7.40;3.87;;;21.30;26.40;;;;;;5063814;28;20481;-60
2022/08/15 05:27:56;;;;;;;7.73;3.60;;;21.20;26.20;;;;;;5075167;28;20465;-60
2022/08/15 05:30:24;;;;;;;6.23;4.00;;;21.10;26.40;;;;;;5066348;28;20488;-61
2022/08/15 05:33:02;;;;;;;5.50;3.20;;;21.10;26.60;;;;;;5060642;28;20461;-60
2022/08/15 05:35:30;;;;;;;5.53;3.13;;;21.00;27.00;;;;;;5074499;28;20486;-65
2022/08/15 05:37:59;;;;;;;6.10;3.40;;;21.00;26.80;;;;;;5065501;28;20453;-63
2022/08/15 05:40:31;;;;;;;6.10;3.40;;;21.00;27.10;;;;;;5066786;28;20481;-61
2022/08/15 05:43:06;;;;;;;6.63;3.93;;;20.90;27.10;;;;;;5071930;28;20461;-61
2022/08/15 05:45:39;;;;;;;6.20;3.40;;;20.90;27.40;;;;;;5064116;28;20489;-63
2022/08/15 05:48:13;;;;;;;7.13;3.67;;;20.90;27.30;;;;;;5068418;28;20458;-61
2022/08/15 05:53:31;;;;;;;7.10;4.23;;;20.90;27.50;;;;;;5062822;28;20465;-73
2022/08/15 05:56:06;;;;;;;5.80;3.63;;;20.90;27.60;;;;;;5063600;28;20831;-73
2022/08/15 05:58:45;;;;;;;6.80;3.07;;;20.80;27.40;;;;;;5066556;28;20461;-74
2022/08/15 06:01:17;;;;;;;10.80;4.10;;;20.90;27.60;;;;;;5061993;28;20580;-74
2022/08/15 06:03:50;;;;;;;6.00;3.37;;;20.90;27.60;;;;;;5062155;28;20460;-72
2022/08/15 06:06:25;;;;;;;7.23;3.47;;;21.00;27.50;;;;;;5063705;28;20481;-73
2022/08/15 06:08:59;;;;;;;6.37;4.07;;;20.90;27.80;;;;;;5064492;28;20464;-72
2022/08/15 06:11:34;;;;;;;7.60;3.87;;;21.00;27.70;;;;;;5064914;28;21016;-72
2022/08/15 06:14:12;;;;;;;5.43;3.47;;;21.00;27.40;;;;;;5056308;28;20872;-72
2022/08/15 06:16:46;;;;;;;6.17;3.30;;;21.10;27.40;;;;;;5067361;28;20559;-72
2022/08/15 06:19:22;;;;;;;6.30;3.80;;;21.10;27.50;;;;;;5068282;28;20471;-73
2022/08/15 06:21:58;;;;;;;6.57;3.70;;;21.10;27.50;;;;;;5060734;28;20476;-72
2022/08/15 06:24:37;;;;;;;6.13;3.30;;;21.10;27.40;;;;;;5068176;28;20853;-73
2022/08/15 06:27:11;;;;;;;8.43;4.20;;;21.10;27.40;;;;;;5068274;28;20456;-73
2022/08/15 06:29:59;;;;;;;6.90;3.50;;;21.10;27.50;;;;;;5066211;28;20498;-72
2022/08/15 06:32:36;;;;;;;5.90;3.47;;;21.10;27.60;;;;;;5067226;28;20847;-73
2022/08/15 06:35:11;;;;;;;5.80;3.53;;;21.10;27.50;;;;;;5068355;28;20445;-73
2022/08/15 06:37:47;;;;;;;8.07;3.53;;;21.10;27.40;;;;;;5068238;28;20481;-72
2022/08/15 06:40:17;;;;;;;7.23;3.73;;;21.10;27.20;;;;;;5068038;28;20952;-73
2022/08/15 06:42:46;;;;;;;6.03;3.80;;;21.30;26.80;;;;;;5059645;28;20691;-73
2022/08/15 06:45:19;;;;;;;9.13;4.30;;;21.40;26.30;;;;;;5067057;28;20488;-73
2022/08/15 06:47:48;;;;;;;6.20;4.00;;;21.50;26.00;;;;;;5064670;28;20457;-72
2022/08/15 06:50:19;;;;;;;6.20;3.37;;;21.60;25.70;;;;;;5067840;28;20468;-72
2022/08/15 06:52:51;;;;;;;6.90;3.63;;;22.30;25.70;;;;;;5082992;28;20476;-73
2022/08/15 06:55:18;;;;;;;6.13;3.50;;;25.60;19.50;;;;;;5087868;28;21009;-73
2022/08/15 06:57:55;;;;;;;7.10;4.30;;;29.20;12.10;;;;;;5085540;28;20460;-73
2022/08/15 07:00:33;;;;;;;6.40;2.90;;;32.50;6.00;;;;;;5087689;28;20455;-72
2022/08/15 07:03:12;;;;;;;5.87;3.00;;;35.20;2.10;;;;;;5080421;28;20476;-72
2022/08/15 07:05:46;;;;;;;6.20;3.27;;;36.60;1.00;;;;;;5087690;28;20480;-72
2022/08/15 07:08:18;;;;;;;4.80;2.53;;;38.20;1.00;;;;;;5087572;28;21031;-73
2022/08/15 07:10:49;;;;;;;4.43;2.37;;;39.70;1.00;;;;;;5090955;28;20546;-73
2022/08/15 07:13:20;;;;;;;5.60;3.07;;;41.30;1.00;;;;;;5087856;28;20444;-72
2022/08/15 07:15:52;;;;;;;5.20;2.77;;;42.60;1.00;;;;;;5092003;28;20448;-73
2022/08/15 07:18:34;;;;;;;4.77;2.77;;;43.20;1.00;;;;;;5091723;28;20456;-72
2022/08/15 07:21:03;;;;;;;5.50;2.30;;;44.00;1.00;;;;;;5088919;28;20541;-72
2022/08/15 07:23:31;;;;;;;4.60;2.50;;;43.70;1.00;;;;;;5091589;28;20456;-73
2022/08/15 07:26:02;;;;;;;4.40;2.53;;;43.70;1.00;;;;;;5091637;28;20472;-72
2022/08/15 07:28:33;;;;;;;6.57;2.70;;;41.80;1.00;;;;;;5091597;28;20456;-72
2022/08/15 07:31:08;;;;;;;5.30;3.00;;;40.20;1.00;;;;;;5083635;28;20560;-72
2022/08/15 07:33:40;;;;;;;4.57;2.87;;;40.20;1.00;;;;;;5078971;28;20853;-73
2022/08/15 07:36:16;;;;;;;4.70;2.97;;;40.80;1.00;;;;;;5071491;28;20519;-73
2022/08/15 07:38:43;;;;;;;5.33;2.93;;;42.00;1.00;;;;;;5079357;28;20967;-73
2022/08/15 07:41:17;;;;;;;6.27;3.20;;;43.00;1.00;;;;;;5079754;28;20475;-73
2022/08/15 07:43:46;;;;;;;5.00;2.30;;;44.40;1.00;;;;;;5079794;28;20456;-73
2022/08/15 07:46:15;;;;;;;6.73;2.30;;;44.60;1.00;;;;;;5072200;28;20481;-71
2022/08/15 07:48:43;;;;;;;4.43;2.63;;;44.30;1.00;;;;;;5079778;28;20449;-71
2022/08/15 07:51:19;;;;;;;4.50;2.47;;;44.10;1.00;;;;;;5079388;28;21157;-71
2022/08/15 07:53:54;;;;;;;4.63;3.10;;;44.60;1.00;;;;;;5065032;28;20982;-71
2022/08/15 07:56:22;;;;;;;5.03;2.47;;;45.20;1.00;;;;;;5087559;28;20460;-71
2022/08/15 07:58:53;;;;;;;3.87;2.50;;;46.70;1.00;;;;;;5079680;28;20453;-71
2022/08/15 08:01:25;;;;;;;4.63;2.50;;;48.00;1.00;;;;;;5072937;28;20485;-70
2022/08/15 08:03:55;;;;;;;5.00;2.70;;;49.00;1.00;;;;;;5070789;28;20453;-71
2022/08/15 08:06:30;;;;;;;4.40;2.33;;;49.80;1.00;;;;;;5070141;28;20473;-71
2022/08/15 08:09:07;;;;;;;3.40;1.73;;;50.60;1.00;;;;;;5070319;28;20457;-70
2022/08/15 08:11:44;;;;;;;4.83;2.40;;;51.20;1.00;;;;;;5067586;28;20476;-71
2022/08/15 08:14:17;;;;;;;3.77;2.40;;;51.70;1.00;;;;;;5070378;28;20548;-71
2022/08/15 08:16:51;;;;;;;3.53;1.83;;;52.10;1.00;;;;;;5073838;28;20449;-71
2022/08/15 08:19:25;;;;;;;4.00;1.80;;;52.40;1.00;;;;;;5073002;28;20458;-71
2022/08/15 08:21:59;;;;;;;4.03;2.10;;;52.80;1.00;;;;;;5069195;28;20480;-71
2022/08/15 08:24:33;;;;;;;4.27;1.90;;;52.90;1.00;;;;;;5064360;28;20465;-71
2022/08/15 08:27:08;;;;;;;4.03;2.03;;;53.00;1.00;;;;;;5070786;28;20472;-71
2022/08/15 08:29:45;;;;;;;3.50;2.20;;;52.90;1.00;;;;;;5067952;28;20460;-71
2022/08/15 08:32:22;;;;;;;4.70;2.03;;;52.70;1.00;;;;;;5087185;28;20471;-71
2022/08/15 08:34:55;;;;;;;3.70;2.00;;;52.80;1.00;;;;;;5086013;28;20460;-71
2022/08/15 08:37:26;;;;;;;4.50;2.37;;;53.20;1.00;;;;;;5090474;28;20539;-71
2022/08/15 08:41:24;;;;;;;3.83;1.70;;;53.60;1.00;;;;;;5090311;28;20460;-71
2022/08/15 08:42:50;;;;;;;4.77;2.03;;;54.00;1.00;;;;;;5084210;28;20513;-70
2022/08/15 08:45:25;;;;;;;3.37;1.60;;;54.40;1.00;;;;;;5089452;28;20451;-71
2022/08/15 08:48:15;;;;;;;3.70;1.83;;;54.60;1.00;;;;;;5085895;28;20455;-71
2022/08/15 08:50:50;;;;;;;4.07;1.80;;;54.90;1.00;;;;;;5089509;28;20488;-71
2022/08/15 08:53:28;;;;;;;4.00;1.60;;;55.40;1.00;;;;;;5086097;28;20812;-70
2022/08/15 08:55:58;;;;;;;4.00;1.90;;;55.60;1.00;;;;;;5090082;28;20978;-71
2022/08/15 08:58:31;;;;;;;3.90;1.90;;;55.70;1.00;;;;;;5089852;28;20985;-72
2022/08/15 09:00:59;;;;;;;3.40;1.80;;;55.70;1.00;;;;;;5088901;28;20513;-71
2022/08/15 09:03:29;;;;;;;3.40;1.60;;;55.60;1.00;;;;;;5089874;28;20452;-71
2022/08/15 09:05:58;;;;;;;4.80;1.80;;;55.90;1.00;;;;;;5089140;28;20471;-70
2022/08/15 09:08:32;;;;;;;3.10;1.53;;;56.40;1.00;;;;;;5087108;28;20452;-71
2022/08/15 09:11:02;;;;;;;3.57;1.63;;;56.30;1.00;;;;;;5089362;28;20513;-71
2022/08/15 09:13:33;;;;;;;4.30;2.03;;;54.70;1.00;;;;;;5089827;28;20455;-71
2022/08/15 09:16:09;;;;;;;3.30;1.77;;;53.30;1.00;;;;;;5089584;28;20955;-70
2022/08/15 09:18:41;;;;;;;4.00;1.97;;;51.70;1.00;;;;;;5089128;28;20455;-71
2022/08/15 09:21:08;;;;;;;4.50;2.33;;;50.00;1.00;;;;;;5089463;28;20476;-70
2022/08/15 09:23:38;;;;;;;3.80;2.10;;;49.80;1.00;;;;;;5088394;28;21077;-70
2022/08/15 09:26:13;;;;;;;6.10;2.00;;;49.40;1.00;;;;;;5089420;28;21027;-70
2022/08/15 09:28:42;;;;;;;3.70;2.00;;;50.00;1.00;;;;;;5089581;28;20451;-71
2022/08/15 09:31:14;;;;;;;6.93;2.40;;;51.40;1.00;;;;;;5084207;28;20468;-70
2022/08/15 09:34:09;;;;;;;3.50;1.57;;;51.90;1.00;;;;;;5088974;28;21111;-70
2022/08/15 09:37:03;;;;;;;4.80;1.87;;;50.20;1.00;;;;;;5088742;28;21191;-71
2022/08/15 09:39:50;;;;;;;5.70;2.10;;;50.80;1.00;;;;;;5067127;28;20460;-70
2022/08/15 09:42:39;;;;;;;4.70;2.03;;;51.90;1.00;;;;;;5085206;28;20566;-70
2022/08/15 09:45:34;;;;;;;4.43;1.90;;;52.30;1.00;;;;;;5083795;28;20489;-70
2022/08/15 09:48:28;;;;;;;3.37;1.73;;;50.90;1.00;;;;;;5089400;28;20985;-70
2022/08/15 09:51:12;;;;;;;4.10;2.00;;;50.60;1.00;;;;;;5084017;28;20484;-70
2022/08/15 09:53:55;;;;;;;3.80;2.43;;;48.90;1.00;;;;;;5088452;28;20487;-70
2022/08/15 09:56:26;;;;;;;7.20;2.30;;;49.40;1.00;;;;;;5087520;28;20459;-70
2022/08/15 09:58:57;;;;;;;4.27;1.83;;;50.70;1.00;;;;;;5088271;28;20460;-71
2022/08/15 10:01:29;;;;;;;5.00;2.30;;;51.10;1.00;;;;;;5088009;28;20467;-70
2022/08/15 10:04:02;;;;;;;4.20;2.00;;;51.50;1.00;;;;;;5088748;28;20456;-71
2022/08/15 10:06:31;;;;;;;4.83;2.10;;;49.50;1.00;;;;;;5088589;28;20468;-70
2022/08/15 10:09:33;;;;;;;3.50;1.70;;;48.50;1.00;;;;;;5088105;28;20463;-70
2022/08/15 10:12:22;;;;;;;5.80;2.27;;;49.00;1.00;;;;;;5080347;28;20480;-70
2022/08/15 10:15:05;;;;;;;4.27;2.20;;;50.50;1.00;;;;;;5080981;28;20584;-71
2022/08/15 10:17:42;;;;;;;4.30;1.90;;;51.30;1.00;;;;;;5087609;28;20452;-70
2022/08/15 10:21:00;;;;;;;6.33;2.50;;;50.90;1.00;;;;;;5088761;28;20449;-71
2022/08/15 10:23:42;;;;;;;3.37;1.73;;;51.10;1.00;;;;;;5004451;28;20451;-70
2022/08/15 10:26:22;;;;;;;3.30;1.83;;;51.40;1.00;;;;;;4999337;28;20490;-71
2022/08/15 10:29:11;;;;;;;3.80;2.13;;;51.50;1.00;;;;;;5061545;28;21223;-71
2022/08/15 10:31:43;;;;;;;3.77;1.63;;;51.00;1.00;;;;;;5087856;28;20472;-71
2022/08/15 10:34:19;;;;;;;4.20;2.00;;;49.30;1.00;;;;;;5084029;28;20456;-70
2022/08/15 10:37:09;;;;;;;3.30;1.77;;;47.50;1.00;;;;;;5088612;28;20460;-70
2022/08/15 10:39:50;;;;;;;5.50;2.50;;;45.30;1.00;;;;;;5092550;28;20456;-70
2022/08/15 10:42:29;;;;;;;3.80;2.30;;;43.70;1.00;;;;;;5087855;28;20481;-70
2022/08/15 10:45:06;;;;;;;5.13;2.20;;;42.30;1.00;;;;;;5084736;28;20530;-70
2022/08/15 10:47:42;;;;;;;6.33;2.13;;;41.00;1.00;;;;;;5087992;28;20877;-70
2022/08/15 10:50:17;;;;;;;3.83;2.00;;;39.70;1.00;;;;;;5088398;28;20539;-70
2022/08/15 10:52:54;;;;;;;4.47;2.53;;;38.70;1.00;;;;;;5079517;28;20480;-70
2022/08/15 10:55:27;;;;;;;4.00;2.27;;;37.80;1.00;;;;;;5084795;28;20456;-70
2022/08/15 10:57:58;;;;;;;4.10;2.03;;;36.90;1.00;;;;;;5088336;28;20444;-70
2022/08/15 11:00:41;;;;;;;4.10;2.57;;;36.20;1.00;;;;;;5086760;28;20459;-70
2022/08/15 11:03:16;;;;;;;4.67;2.63;;;35.50;1.00;;;;;;5086691;28;20475;-70
2022/08/15 11:05:43;;;;;;;5.20;2.03;;;34.90;1.00;;;;;;5087327;28;20967;-70
2022/08/15 11:08:17;;;;;;;5.10;2.40;;;34.40;1.00;;;;;;5088090;28;20525;-70
2022/08/15 11:10:46;;;;;;;4.87;2.70;;;34.00;1.00;;;;;;5087639;28;20510;-70
2022/08/15 11:13:17;;;;;;;4.10;2.30;;;33.70;1.00;;;;;;5087812;28;20444;-70
2022/08/15 11:15:54;;;;;;;6.60;2.63;;;33.50;1.00;;;;;;5086719;28;20484;-70
2022/08/15 11:18:25;;;;;;;4.70;2.63;;;33.30;1.00;;;;;;5087503;28;20448;-70
2022/08/15 11:20:55;;;;;;;4.80;3.10;;;33.10;1.00;;;;;;5087918;28;20483;-70
2022/08/15 11:23:36;;;;;;;4.13;2.40;;;32.80;1.00;;;;;;5088110;28;21041;-70
2022/08/15 11:26:06;;;;;;;5.53;2.80;;;32.50;1.00;;;;;;5087642;28;20460;-70
2022/08/15 11:28:33;;;;;;;4.40;2.57;;;32.30;1.00;;;;;;5087948;28;20444;-70
2022/08/15 11:31:03;;;;;;;4.57;2.60;;;32.20;1.00;;;;;;5086963;28;20464;-70
2022/08/15 11:33:41;;;;;;;4.80;2.60;;;32.00;1.00;;;;;;5087769;28;21176;-70
2022/08/15 11:36:12;;;;;;;4.50;2.20;;;31.50;1.00;;;;;;5086830;28;20444;-70
2022/08/15 11:38:44;;;;;;;4.80;2.17;;;31.30;1.00;;;;;;5087913;28;20509;-70
2022/08/15 11:41:20;;;;;;;4.47;1.93;;;31.30;1.00;;;;;;5087422;28;20476;-70
2022/08/15 11:43:48;;;;;;;5.17;2.70;;;31.10;1.00;;;;;;5079741;28;20923;-70
2022/08/15 11:46:17;;;;;;;4.60;2.73;;;31.00;1.00;;;;;;5087731;28;20478;-70
2022/08/15 11:48:49;;;;;;;5.83;3.23;;;30.90;1.00;;;;;;5087189;28;20460;-70
2022/08/15 11:51:26;;;;;;;5.23;2.50;;;30.70;1.00;;;;;;5086394;28;20480;-71
2022/08/15 11:54:07;;;;;;;4.83;2.57;;;30.60;1.00;;;;;;5103711;22;20486;-67
2022/08/15 11:56:46;;;;;;;4.23;2.27;;;30.50;1.00;;;;;;5106473;28;20447;-65
2022/08/15 11:59:14;;;;;;;5.27;2.50;;;30.40;1.00;;;;;;5095405;28;20459;-66
2022/08/15 12:01:41;;;;;;;7.70;2.63;;;30.30;1.00;;;;;;5105885;28;20468;-66
2022/08/15 12:04:12;;;;;;;5.70;2.70;;;30.30;1.00;;;;;;5092733;28;20977;-66
2022/08/15 12:06:41;;;;;;;4.33;2.70;;;30.30;1.00;;;;;;5086468;28;20526;-67
2022/08/15 12:09:14;;;;;;;5.23;2.40;;;30.30;1.00;;;;;;5091614;28;20517;-66
2022/08/15 12:11:47;;;;;;;5.03;2.87;;;30.20;1.00;;;;;;5090309;28;20959;-66
2022/08/15 12:14:20;;;;;;;4.33;2.33;;;30.20;1.00;;;;;;5082041;28;20955;-65
2022/08/15 12:16:50;;;;;;;6.03;3.10;;;30.20;1.00;;;;;;5085894;28;20558;-66
2022/08/15 12:19:29;;;;;;;4.57;2.60;;;30.20;1.00;;;;;;5095700;28;20448;-67
2022/08/15 12:21:58;;;;;;;5.30;2.57;;;30.10;1.00;;;;;;5082343;28;20491;-67
2022/08/15 12:24:27;;;;;;;7.53;2.87;;;30.10;1.00;;;;;;5099351;28;20467;-66
2022/08/15 12:27:01;;;;;;;5.60;2.60;;;30.00;1.00;;;;;;5089812;28;20513;-66
2022/08/15 12:29:29;;;;;;;5.10;3.00;;;29.90;1.00;;;;;;5089828;28;20468;-65
2022/08/15 12:31:58;;;;;;;5.57;2.67;;;29.80;1.00;;;;;;5093877;28;20464;-67
2022/08/15 12:34:27;;;;;;;5.20;2.60;;;29.80;1.00;;;;;;5092384;28;20529;-66
2022/08/15 12:36:55;;;;;;;6.47;2.93;;;29.80;1.00;;;;;;5088744;28;20867;-66
2022/08/15 12:39:22;;;;;;;5.10;2.83;;;29.80;1.00;;;;;;5087693;28;20538;-66
2022/08/15 12:41:52;;;;;;;5.07;2.70;;;29.80;1.00;;;;;;5094979;28;20808;-67
2022/08/15 12:44:23;;;;;;;6.40;2.80;;;29.80;1.00;;;;;;5087346;28;20557;-67
2022/08/15 12:46:50;;;;;;;4.77;2.20;;;29.80;1.00;;;;;;5098125;28;20688;-68
2022/08/15 12:49:17;;;;;;;7.80;2.60;;;29.80;1.00;;;;;;5088595;28;20491;-66
2022/08/15 12:51:45;;;;;;;4.30;2.50;;;29.80;1.00;;;;;;5097860;28;20972;-67
2022/08/15 12:54:12;;;;;;;4.20;2.10;;;29.80;1.00;;;;;;5091677;28;20496;-66
2022/08/15 12:56:39;;;;;;;7.33;2.63;;;29.80;1.00;;;;;;5095942;28;20943;-68
2022/08/15 12:59:06;;;;;;;6.90;3.23;;;29.80;1.00;;;;;;5093058;28;20532;-68
2022/08/15 13:01:35;;;;;;;5.40;2.70;;;29.80;1.00;;;;;;5091002;28;20469;-67
2022/08/15 13:04:05;;;;;;;6.07;3.00;;;29.80;1.00;;;;;;5088821;28;20472;-67
2022/08/15 13:06:39;;;;;;;5.40;2.43;;;29.80;1.00;;;;;;5089371;28;20460;-66
2022/08/15 13:09:08;;;;;;;7.80;3.17;;;29.70;1.00;;;;;;5092973;28;20484;-65
2022/08/15 13:11:36;;;;;;;5.93;2.70;;;29.70;1.00;;;;;;5090008;28;20455;-66
2022/08/15 13:14:04;;;;;;;6.50;2.53;;;29.60;1.00;;;;;;5089412;28;20529;-66
2022/08/15 13:16:31;;;;;;;5.10;2.67;;;29.60;1.00;;;;;;5089583;28;20464;-66